sensor_id;sensor_type;location;lat;lon;timestamp;pressure;altitude;pressure_sealevel;temperature;humidity
21828;BME280;11076;47.942;11.804;2022-07-22T00:02:24;94760.63;;;16.01;100.00
21828;BME280;11076;47.942;11.804;2022-07-22T00:07:26;94758.09;;;15.95;100.00
21828;BME280;11076;47.942;11.804;2022-07-22T00:12:29;94761.53;;;15.90;100.00
21828;BME280;11076;47.942;11.804;2022-07-22T00:17:31;94750.16;;;15.88;100.00
21828;BME280;11076;47.942;11.804;2022-07-22T00:22:34;94748.03;;;15.90;100.00
21828;BME280;11076;47.942;11.804;2022-07-22T00:27:37;94753.09;;;15.86;100.00
21828;BME280;11076;47.942;11.804;2022-07-22T00:32:39;94744.91;;;15.81;100.00
21828;BME280;11076;47.942;11.804;2022-07-22T00:37:42;94741.78;;;15.73;100.00
21828;BME280;11076;47.942;11.804;2022-07-22T00:42:45;94733.56;;;15.67;100.00
21828;BME280;11076;47.942;11.804;2022-07-22T00:47:48;94728.56;;;15.59;100.00
21828;BME280;11076;47.942;11.804;2022-07-22T00:52:51;94727.44;;;15.55;100.00
21828;BME280;11076;47.942;11.804;2022-07-22T00:57:53;94736.47;;;15.49;100.00
21828;BME280;11076;47.942;11.804;2022-07-22T01:02:56;94726.19;;;15.46;100.00
21828;BME280;11076;47.942;11.804;2022-07-22T01:07:58;94721.75;;;15.40;100.00
21828;BME280;11076;47.942;11.804;2022-07-22T01:13:01;94729.25;;;15.38;100.00
21828;BME280;11076;47.942;11.804;2022-07-22T01:18:03;94724.00;;;15.31;100.00
21828;BME280;11076;47.942;11.804;2022-07-22T01:23:06;94725.56;;;15.27;100.00
21828;BME280;11076;47.942;11.804;2022-07-22T01:28:08;94723.00;;;15.20;100.00
21828;BME280;11076;47.942;11.804;2022-07-22T01:33:11;94714.81;;;15.15;100.00
21828;BME280;11076;47.942;11.804;2022-07-22T01:38:14;94719.16;;;15.16;100.00
21828;BME280;11076;47.942;11.804;2022-07-22T01:43:17;94708.50;;;15.09;100.00
21828;BME280;11076;47.942;11.804;2022-07-22T01:48:22;94713.09;;;15.09;100.00
21828;BME280;11076;47.942;11.804;2022-07-22T01:53:26;94710.28;;;15.04;100.00
21828;BME280;11076;47.942;11.804;2022-07-22T01:58:29;94710.53;;;15.02;100.00
21828;BME280;11076;47.942;11.804;2022-07-22T02:03:32;94710.41;;;14.97;100.00
21828;BME280;11076;47.942;11.804;2022-07-22T02:08:36;94696.16;;;14.97;100.00
21828;BME280;11076;47.942;11.804;2022-07-22T02:13:48;94698.25;;;14.95;100.00
21828;BME280;11076;47.942;11.804;2022-07-22T02:18:50;94690.66;;;14.91;100.00
21828;BME280;11076;47.942;11.804;2022-07-22T02:23:53;94693.22;;;14.98;100.00
21828;BME280;11076;47.942;11.804;2022-07-22T02:28:56;94690.97;;;15.07;100.00
21828;BME280;11076;47.942;11.804;2022-07-22T02:33:58;94694.22;;;15.09;100.00
21828;BME280;11076;47.942;11.804;2022-07-22T02:39:03;94684.38;;;15.15;100.00
21828;BME280;11076;47.942;11.804;2022-07-22T02:44:07;94688.06;;;15.25;100.00
21828;BME280;11076;47.942;11.804;2022-07-22T02:49:09;94686.72;;;15.40;100.00
21828;BME280;11076;47.942;11.804;2022-07-22T02:54:12;94683.22;;;15.39;100.00
21828;BME280;11076;47.942;11.804;2022-07-22T02:59:15;94687.00;;;15.38;100.00
21828;BME280;11076;47.942;11.804;2022-07-22T03:04:17;94692.50;;;15.31;100.00
21828;BME280;11076;47.942;11.804;2022-07-22T03:09:20;94699.09;;;15.24;100.00
21828;BME280;11076;47.942;11.804;2022-07-22T03:14:23;94700.78;;;15.13;100.00
21828;BME280;11076;47.942;11.804;2022-07-22T03:19:25;94700.59;;;15.03;100.00
21828;BME280;11076;47.942;11.804;2022-07-22T03:24:30;94697.69;;;14.93;100.00
21828;BME280;11076;47.942;11.804;2022-07-22T03:29:33;94698.63;;;14.86;100.00
21828;BME280;11076;47.942;11.804;2022-07-22T03:34:35;94710.44;;;14.85;100.00
21828;BME280;11076;47.942;11.804;2022-07-22T03:39:43;94700.63;;;14.79;100.00
21828;BME280;11076;47.942;11.804;2022-07-22T03:44:46;94705.22;;;14.79;100.00
21828;BME280;11076;47.942;11.804;2022-07-22T03:49:50;94702.03;;;14.82;100.00
21828;BME280;11076;47.942;11.804;2022-07-22T03:54:59;94704.34;;;14.90;100.00
21828;BME280;11076;47.942;11.804;2022-07-22T04:00:03;94706.78;;;15.03;100.00
21828;BME280;11076;47.942;11.804;2022-07-22T04:05:15;94702.66;;;15.13;100.00
21828;BME280;11076;47.942;11.804;2022-07-22T04:10:18;94708.47;;;15.21;100.00
21828;BME280;11076;47.942;11.804;2022-07-22T04:15:21;94694.38;;;15.31;100.00
21828;BME280;11076;47.942;11.804;2022-07-22T04:20:23;94694.44;;;15.48;100.00
21828;BME280;11076;47.942;11.804;2022-07-22T04:25:45;94691.44;;;15.61;100.00
21828;BME280;11076;47.942;11.804;2022-07-22T04:30:48;94687.88;;;15.73;100.00
21828;BME280;11076;47.942;11.804;2022-07-22T04:35:51;94687.00;;;15.84;100.00
21828;BME280;11076;47.942;11.804;2022-07-22T04:40:53;94679.06;;;15.94;100.00
21828;BME280;11076;47.942;11.804;2022-07-22T04:45:57;94681.91;;;16.21;100.00
21828;BME280;11076;47.942;11.804;2022-07-22T04:51:03;94692.59;;;16.50;100.00
21828;BME280;11076;47.942;11.804;2022-07-22T04:56:07;94681.25;;;17.09;96.99
21828;BME280;11076;47.942;11.804;2022-07-22T05:01:10;94682.06;;;16.87;97.99
21828;BME280;11076;47.942;11.804;2022-07-22T05:06:13;94688.50;;;17.08;97.30
21828;BME280;11076;47.942;11.804;2022-07-22T05:11:18;94695.44;;;17.21;97.02
21828;BME280;11076;47.942;11.804;2022-07-22T05:16:22;94696.16;;;18.25;93.69
21828;BME280;11076;47.942;11.804;2022-07-22T05:21:26;94696.16;;;18.25;94.27
21828;BME280;11076;47.942;11.804;2022-07-22T05:26:29;94684.97;;;21.53;85.17
21828;BME280;11076;47.942;11.804;2022-07-22T05:31:33;94675.13;;;25.68;71.84
21828;BME280;11076;47.942;11.804;2022-07-22T05:36:38;94670.63;;;27.96;63.96
21828;BME280;11076;47.942;11.804;2022-07-22T05:41:42;94674.16;;;29.31;57.66
21828;BME280;11076;47.942;11.804;2022-07-22T05:46:44;94671.13;;;30.80;51.88
21828;BME280;11076;47.942;11.804;2022-07-22T05:51:47;94671.19;;;31.50;47.45
21828;BME280;11076;47.942;11.804;2022-07-22T05:56:50;94679.78;;;32.10;46.73
21828;BME280;11076;47.942;11.804;2022-07-22T06:01:52;94664.25;;;32.90;43.79
21828;BME280;11076;47.942;11.804;2022-07-22T06:07:11;94670.84;;;33.45;41.88
21828;BME280;11076;47.942;11.804;2022-07-22T06:12:15;94669.59;;;33.59;40.49
21828;BME280;11076;47.942;11.804;2022-07-22T06:17:18;94672.78;;;34.47;38.78
21828;BME280;11076;47.942;11.804;2022-07-22T06:22:21;94667.44;;;34.19;38.22
21828;BME280;11076;47.942;11.804;2022-07-22T06:27:24;94667.09;;;34.05;37.03
21828;BME280;11076;47.942;11.804;2022-07-22T06:32:28;94673.34;;;31.94;38.83
21828;BME280;11076;47.942;11.804;2022-07-22T06:37:30;94677.16;;;27.60;46.47
21828;BME280;11076;47.942;11.804;2022-07-22T06:42:47;94679.56;;;25.91;50.24
21828;BME280;11076;47.942;11.804;2022-07-22T06:48:02;94683.97;;;25.09;52.36
21828;BME280;11076;47.942;11.804;2022-07-22T06:53:05;94678.56;;;24.76;53.98
21828;BME280;11076;47.942;11.804;2022-07-22T06:58:07;94681.75;;;24.51;55.14
21828;BME280;11076;47.942;11.804;2022-07-22T07:03:10;94674.72;;;24.45;56.38
21828;BME280;11076;47.942;11.804;2022-07-22T07:08:40;94672.22;;;24.15;57.00
21828;BME280;11076;47.942;11.804;2022-07-22T07:13:42;94660.19;;;24.30;57.54
21828;BME280;11076;47.942;11.804;2022-07-22T07:18:45;94666.63;;;24.39;57.89
21828;BME280;11076;47.942;11.804;2022-07-22T07:23:48;94667.03;;;24.47;58.57
21828;BME280;11076;47.942;11.804;2022-07-22T07:28:51;94663.63;;;24.55;58.76
21828;BME280;11076;47.942;11.804;2022-07-22T07:34:06;94658.94;;;24.41;58.01
21828;BME280;11076;47.942;11.804;2022-07-22T07:39:09;94662.97;;;24.63;57.27
21828;BME280;11076;47.942;11.804;2022-07-22T07:44:11;94658.72;;;24.85;57.31
21828;BME280;11076;47.942;11.804;2022-07-22T07:49:14;94656.69;;;24.90;57.47
21828;BME280;11076;47.942;11.804;2022-07-22T07:54:16;94655.81;;;24.95;57.65
21828;BME280;11076;47.942;11.804;2022-07-22T07:59:20;94663.94;;;25.28;57.41
21828;BME280;11076;47.942;11.804;2022-07-22T08:04:26;94652.91;;;25.33;57.20
21828;BME280;11076;47.942;11.804;2022-07-22T08:09:42;94654.50;;;25.34;57.62
21828;BME280;11076;47.942;11.804;2022-07-22T08:14:53;94650.66;;;25.35;55.99
21828;BME280;11076;47.942;11.804;2022-07-22T08:20:20;94642.97;;;25.37;55.61
21828;BME280;11076;47.942;11.804;2022-07-22T08:25:23;94639.78;;;25.57;55.36
21828;BME280;11076;47.942;11.804;2022-07-22T08:30:26;94646.72;;;25.91;54.79
21828;BME280;11076;47.942;11.804;2022-07-22T08:35:32;94646.09;;;25.94;55.01
21828;BME280;11076;47.942;11.804;2022-07-22T08:40:35;94651.56;;;25.94;54.70
21828;BME280;11076;47.942;11.804;2022-07-22T08:45:40;94643.41;;;26.03;54.75
21828;BME280;11076;47.942;11.804;2022-07-22T08:50:43;94637.81;;;26.08;54.77
21828;BME280;11076;47.942;11.804;2022-07-22T08:55:57;94636.03;;;26.26;54.59
21828;BME280;11076;47.942;11.804;2022-07-22T09:01:09;94633.41;;;26.21;54.67
21828;BME280;11076;47.942;11.804;2022-07-22T09:06:21;94617.06;;;26.38;54.28
21828;BME280;11076;47.942;11.804;2022-07-22T09:11:27;94622.03;;;26.59;54.27
21828;BME280;11076;47.942;11.804;2022-07-22T09:16:56;94613.06;;;26.67;53.81
21828;BME280;11076;47.942;11.804;2022-07-22T09:22:04;94615.94;;;26.62;53.83
21828;BME280;11076;47.942;11.804;2022-07-22T09:27:27;94612.81;;;26.55;53.72
21828;BME280;11076;47.942;11.804;2022-07-22T09:32:52;94615.19;;;26.70;53.55
21828;BME280;11076;47.942;11.804;2022-07-22T09:38:17;94606.50;;;26.86;53.39
21828;BME280;11076;47.942;11.804;2022-07-22T09:43:20;94595.34;;;26.73;51.54
21828;BME280;11076;47.942;11.804;2022-07-22T09:48:23;94591.91;;;26.68;52.21
21828;BME280;11076;47.942;11.804;2022-07-22T09:53:46;94589.63;;;27.01;51.58
21828;BME280;11076;47.942;11.804;2022-07-22T09:58:51;94595.41;;;26.91;52.44
21828;BME280;11076;47.942;11.804;2022-07-22T10:04:00;94585.16;;;27.14;53.42
21828;BME280;11076;47.942;11.804;2022-07-22T10:09:06;94580.06;;;27.30;53.28
21828;BME280;11076;47.942;11.804;2022-07-22T10:14:18;94561.97;;;27.29;52.45
21828;BME280;11076;47.942;11.804;2022-07-22T10:19:23;94570.97;;;27.21;51.60
21828;BME280;11076;47.942;11.804;2022-07-22T10:24:26;94561.28;;;27.23;51.21
21828;BME280;11076;47.942;11.804;2022-07-22T10:29:41;94563.47;;;27.52;49.65
21828;BME280;11076;47.942;11.804;2022-07-22T10:40:15;94559.09;;;27.69;49.73
21828;BME280;11076;47.942;11.804;2022-07-22T10:45:18;94544.72;;;27.81;49.25
21828;BME280;11076;47.942;11.804;2022-07-22T10:50:41;94538.56;;;28.10;49.34
21828;BME280;11076;47.942;11.804;2022-07-22T11:01:10;94535.31;;;28.16;48.93
21828;BME280;11076;47.942;11.804;2022-07-22T11:06:27;94540.66;;;28.13;47.89
21828;BME280;11076;47.942;11.804;2022-07-22T11:11:49;94532.69;;;28.38;46.85
21828;BME280;11076;47.942;11.804;2022-07-22T11:17:05;94529.22;;;28.58;46.54
21828;BME280;11076;47.942;11.804;2022-07-22T11:22:10;94523.59;;;28.54;45.55
21828;BME280;11076;47.942;11.804;2022-07-22T11:27:16;94533.13;;;28.57;44.99
21828;BME280;11076;47.942;11.804;2022-07-22T11:32:20;94521.25;;;28.74;46.16
21828;BME280;11076;47.942;11.804;2022-07-22T11:37:27;94519.13;;;28.80;46.47
21828;BME280;11076;47.942;11.804;2022-07-22T11:42:29;94522.13;;;28.87;46.06
21828;BME280;11076;47.942;11.804;2022-07-22T11:47:32;94513.06;;;28.95;46.31
21828;BME280;11076;47.942;11.804;2022-07-22T11:52:34;94503.31;;;28.98;46.06
21828;BME280;11076;47.942;11.804;2022-07-22T11:57:46;94491.63;;;29.01;45.58
21828;BME280;11076;47.942;11.804;2022-07-22T12:02:49;94498.91;;;29.05;45.15
21828;BME280;11076;47.942;11.804;2022-07-22T12:07:52;94487.38;;;29.12;45.99
21828;BME280;11076;47.942;11.804;2022-07-22T12:12:56;94486.47;;;29.29;44.87
21828;BME280;11076;47.942;11.804;2022-07-22T12:18:20;94479.00;;;29.29;45.86
21828;BME280;11076;47.942;11.804;2022-07-22T12:23:24;94469.69;;;29.22;46.56
21828;BME280;11076;47.942;11.804;2022-07-22T12:28:28;94465.13;;;29.47;45.91
21828;BME280;11076;47.942;11.804;2022-07-22T12:33:31;94461.47;;;29.34;45.85
21828;BME280;11076;47.942;11.804;2022-07-22T12:38:34;94455.69;;;29.48;45.61
21828;BME280;11076;47.942;11.804;2022-07-22T12:43:38;94460.00;;;29.58;45.23
21828;BME280;11076;47.942;11.804;2022-07-22T12:48:49;94463.06;;;29.56;45.79
21828;BME280;11076;47.942;11.804;2022-07-22T12:53:52;94453.72;;;29.69;45.45
21828;BME280;11076;47.942;11.804;2022-07-22T12:58:55;94446.03;;;29.63;46.40
21828;BME280;11076;47.942;11.804;2022-07-22T13:03:57;94439.41;;;29.76;46.54
21828;BME280;11076;47.942;11.804;2022-07-22T13:08:59;94448.09;;;29.66;46.46
21828;BME280;11076;47.942;11.804;2022-07-22T13:14:02;94444.59;;;29.78;45.83
21828;BME280;11076;47.942;11.804;2022-07-22T13:19:04;94432.09;;;29.80;46.85
21828;BME280;11076;47.942;11.804;2022-07-22T13:24:07;94432.53;;;29.82;46.34
21828;BME280;11076;47.942;11.804;2022-07-22T13:29:09;94424.50;;;29.77;46.10
21828;BME280;11076;47.942;11.804;2022-07-22T13:34:12;94421.78;;;29.89;46.20
21828;BME280;11076;47.942;11.804;2022-07-22T13:39:15;94422.97;;;30.01;45.57
21828;BME280;11076;47.942;11.804;2022-07-22T13:44:17;94417.69;;;30.08;45.21
21828;BME280;11076;47.942;11.804;2022-07-22T13:49:20;94407.13;;;30.10;46.32
21828;BME280;11076;47.942;11.804;2022-07-22T13:54:23;94412.56;;;30.43;46.20
21828;BME280;11076;47.942;11.804;2022-07-22T13:59:27;94399.50;;;30.40;45.54
21828;BME280;11076;47.942;11.804;2022-07-22T14:04:29;94397.50;;;30.28;45.83
21828;BME280;11076;47.942;11.804;2022-07-22T14:09:32;94393.34;;;30.10;46.13
21828;BME280;11076;47.942;11.804;2022-07-22T14:14:37;94395.19;;;30.18;46.01
21828;BME280;11076;47.942;11.804;2022-07-22T14:19:40;94397.94;;;30.18;45.38
21828;BME280;11076;47.942;11.804;2022-07-22T14:24:42;94395.88;;;30.15;45.08
21828;BME280;11076;47.942;11.804;2022-07-22T14:29:45;94385.47;;;30.33;44.66
21828;BME280;11076;47.942;11.804;2022-07-22T14:34:47;94380.88;;;30.37;45.30
21828;BME280;11076;47.942;11.804;2022-07-22T14:39:50;94384.22;;;30.30;45.13
21828;BME280;11076;47.942;11.804;2022-07-22T14:44:52;94371.91;;;30.52;44.69
21828;BME280;11076;47.942;11.804;2022-07-22T14:49:55;94380.06;;;30.49;44.98
21828;BME280;11076;47.942;11.804;2022-07-22T14:54:57;94372.38;;;30.42;44.67
21828;BME280;11076;47.942;11.804;2022-07-22T15:00:00;94379.84;;;30.54;44.47
21828;BME280;11076;47.942;11.804;2022-07-22T15:05:02;94375.44;;;30.65;43.57
21828;BME280;11076;47.942;11.804;2022-07-22T15:10:05;94366.75;;;30.39;43.80
21828;BME280;11076;47.942;11.804;2022-07-22T15:15:08;94374.56;;;30.37;43.52
21828;BME280;11076;47.942;11.804;2022-07-22T15:20:11;94369.72;;;30.33;43.86
21828;BME280;11076;47.942;11.804;2022-07-22T15:25:13;94367.19;;;30.41;43.77
21828;BME280;11076;47.942;11.804;2022-07-22T15:30:16;94360.44;;;30.38;43.15
21828;BME280;11076;47.942;11.804;2022-07-22T15:35:18;94362.34;;;30.50;43.84
21828;BME280;11076;47.942;11.804;2022-07-22T15:40:20;94357.09;;;30.45;43.58
21828;BME280;11076;47.942;11.804;2022-07-22T15:45:23;94352.97;;;30.39;43.14
21828;BME280;11076;47.942;11.804;2022-07-22T15:50:28;94349.00;;;30.27;42.57
21828;BME280;11076;47.942;11.804;2022-07-22T15:55:30;94344.44;;;30.31;42.76
21828;BME280;11076;47.942;11.804;2022-07-22T16:00:33;94346.25;;;30.15;43.26
21828;BME280;11076;47.942;11.804;2022-07-22T16:05:36;94344.28;;;30.28;42.98
21828;BME280;11076;47.942;11.804;2022-07-22T16:10:38;94343.84;;;30.13;42.92
21828;BME280;11076;47.942;11.804;2022-07-22T16:15:41;94335.69;;;30.17;43.00
21828;BME280;11076;47.942;11.804;2022-07-22T16:20:44;94327.53;;;30.21;43.38
21828;BME280;11076;47.942;11.804;2022-07-22T16:25:46;94322.50;;;30.10;44.55
21828;BME280;11076;47.942;11.804;2022-07-22T16:30:49;94318.00;;;29.93;44.93
21828;BME280;11076;47.942;11.804;2022-07-22T16:35:51;94317.41;;;29.76;45.08
21828;BME280;11076;47.942;11.804;2022-07-22T16:40:54;94313.84;;;29.75;45.13
21828;BME280;11076;47.942;11.804;2022-07-22T16:45:56;94321.72;;;29.64;45.46
21828;BME280;11076;47.942;11.804;2022-07-22T16:50:59;94314.03;;;29.58;45.15
21828;BME280;11076;47.942;11.804;2022-07-22T16:56:01;94302.66;;;29.59;44.67
21828;BME280;11076;47.942;11.804;2022-07-22T17:01:04;94284.19;;;29.47;45.07
21828;BME280;11076;47.942;11.804;2022-07-22T17:06:06;94291.53;;;29.55;44.83
21828;BME280;11076;47.942;11.804;2022-07-22T17:11:08;94281.41;;;29.35;45.44
21828;BME280;11076;47.942;11.804;2022-07-22T17:16:11;94293.44;;;29.88;45.41
21828;BME280;11076;47.942;11.804;2022-07-22T17:21:14;94316.31;;;30.38;44.12
21828;BME280;11076;47.942;11.804;2022-07-22T17:26:17;94320.09;;;30.09;44.84
21828;BME280;11076;47.942;11.804;2022-07-22T17:31:20;94320.09;;;30.09;44.71
21828;BME280;11076;47.942;11.804;2022-07-22T17:36:25;94328.59;;;30.41;44.29
21828;BME280;11076;47.942;11.804;2022-07-22T17:41:27;94314.03;;;30.81;43.12
21828;BME280;11076;47.942;11.804;2022-07-22T17:46:30;94309.97;;;30.13;44.16
21828;BME280;11076;47.942;11.804;2022-07-22T17:51:33;94291.69;;;29.84;44.40
21828;BME280;11076;47.942;11.804;2022-07-22T17:56:36;94287.00;;;29.84;44.57
21828;BME280;11076;47.942;11.804;2022-07-22T18:01:38;94283.91;;;29.86;44.18
21828;BME280;11076;47.942;11.804;2022-07-22T18:06:42;94286.84;;;29.68;44.45
21828;BME280;11076;47.942;11.804;2022-07-22T18:11:44;94292.16;;;28.52;46.79
21828;BME280;11076;47.942;11.804;2022-07-22T18:16:46;94292.63;;;27.95;47.85
21828;BME280;11076;47.942;11.804;2022-07-22T18:21:49;94278.53;;;27.67;49.13
21828;BME280;11076;47.942;11.804;2022-07-22T18:26:51;94276.34;;;27.81;49.14
21828;BME280;11076;47.942;11.804;2022-07-22T18:31:54;94271.41;;;28.04;49.64
21828;BME280;11076;47.942;11.804;2022-07-22T18:36:56;94290.91;;;27.34;51.95
21828;BME280;11076;47.942;11.804;2022-07-22T18:41:59;94353.09;;;27.04;52.78
21828;BME280;11076;47.942;11.804;2022-07-22T18:47:02;94408.09;;;26.99;53.21
21828;BME280;11076;47.942;11.804;2022-07-22T18:52:04;94403.91;;;26.84;54.07
21828;BME280;11076;47.942;11.804;2022-07-22T18:57:07;94372.13;;;26.74;54.38
21828;BME280;11076;47.942;11.804;2022-07-22T19:02:09;94339.22;;;26.08;59.68
21828;BME280;11076;47.942;11.804;2022-07-22T19:07:14;94336.38;;;25.19;65.93
21828;BME280;11076;47.942;11.804;2022-07-22T19:12:17;94321.66;;;24.48;70.38
21828;BME280;11076;47.942;11.804;2022-07-22T19:17:21;94330.72;;;23.93;73.81
21828;BME280;11076;47.942;11.804;2022-07-22T19:22:23;94346.34;;;23.59;76.05
21828;BME280;11076;47.942;11.804;2022-07-22T19:27:26;94358.28;;;23.50;77.58
21828;BME280;11076;47.942;11.804;2022-07-22T19:32:30;94378.00;;;23.28;79.28
21828;BME280;11076;47.942;11.804;2022-07-22T19:37:32;94397.88;;;22.95;81.94
21828;BME280;11076;47.942;11.804;2022-07-22T19:42:35;94389.06;;;23.03;81.93
21828;BME280;11076;47.942;11.804;2022-07-22T19:47:38;94395.44;;;22.94;82.54
21828;BME280;11076;47.942;11.804;2022-07-22T19:52:41;94420.19;;;22.59;84.52
21828;BME280;11076;47.942;11.804;2022-07-22T19:57:43;94440.69;;;22.57;85.67
21828;BME280;11076;47.942;11.804;2022-07-22T20:02:47;94442.88;;;22.55;85.67
21828;BME280;11076;47.942;11.804;2022-07-22T20:07:49;94439.19;;;22.46;85.66
21828;BME280;11076;47.942;11.804;2022-07-22T20:12:52;94450.22;;;22.35;86.44
21828;BME280;11076;47.942;11.804;2022-07-22T20:17:55;94436.28;;;22.13;88.45
21828;BME280;11076;47.942;11.804;2022-07-22T20:22:57;94419.25;;;22.02;88.85
21828;BME280;11076;47.942;11.804;2022-07-22T20:28:00;94420.38;;;21.77;89.32
21828;BME280;11076;47.942;11.804;2022-07-22T20:33:03;94421.97;;;21.49;91.62
21828;BME280;11076;47.942;11.804;2022-07-22T20:38:05;94401.94;;;21.39;92.72
21828;BME280;11076;47.942;11.804;2022-07-22T20:43:11;94406.06;;;21.32;93.43
21828;BME280;11076;47.942;11.804;2022-07-22T20:48:14;94398.53;;;21.23;93.62
21828;BME280;11076;47.942;11.804;2022-07-22T20:53:16;94400.66;;;21.26;92.58
21828;BME280;11076;47.942;11.804;2022-07-22T20:58:18;94390.66;;;21.22;92.92
21828;BME280;11076;47.942;11.804;2022-07-22T21:03:21;94397.59;;;21.04;94.77
21828;BME280;11076;47.942;11.804;2022-07-22T21:08:24;94400.97;;;20.91;95.78
21828;BME280;11076;47.942;11.804;2022-07-22T21:13:26;94400.75;;;20.82;95.80
21828;BME280;11076;47.942;11.804;2022-07-22T21:18:28;94405.50;;;20.61;96.05
21828;BME280;11076;47.942;11.804;2022-07-22T21:23:31;94393.50;;;20.72;95.28
21828;BME280;11076;47.942;11.804;2022-07-22T21:28:34;94398.47;;;20.55;95.77
21828;BME280;11076;47.942;11.804;2022-07-22T21:33:37;94403.75;;;20.31;97.56
21828;BME280;11076;47.942;11.804;2022-07-22T21:38:39;94423.56;;;20.31;98.42
21828;BME280;11076;47.942;11.804;2022-07-22T21:43:41;94431.69;;;20.41;98.02
21828;BME280;11076;47.942;11.804;2022-07-22T21:48:44;94455.53;;;20.50;98.32
21828;BME280;11076;47.942;11.804;2022-07-22T21:53:47;94492.44;;;20.56;97.85
21828;BME280;11076;47.942;11.804;2022-07-22T21:58:49;94509.75;;;20.70;96.40
21828;BME280;11076;47.942;11.804;2022-07-22T22:03:53;94490.09;;;20.89;93.42
21828;BME280;11076;47.942;11.804;2022-07-22T22:08:56;94479.75;;;20.96;91.36
21828;BME280;11076;47.942;11.804;2022-07-22T22:13:58;94488.41;;;20.98;89.29
21828;BME280;11076;47.942;11.804;2022-07-22T22:19:00;94497.34;;;21.03;86.87
21828;BME280;11076;47.942;11.804;2022-07-22T22:24:04;94507.56;;;21.22;83.47
21828;BME280;11076;47.942;11.804;2022-07-22T22:29:09;94507.72;;;21.36;80.39
21828;BME280;11076;47.942;11.804;2022-07-22T22:34:12;94507.94;;;21.44;78.86
21828;BME280;11076;47.942;11.804;2022-07-22T22:39:14;94522.91;;;21.47;77.25
21828;BME280;11076;47.942;11.804;2022-07-22T22:44:17;94519.75;;;21.30;79.18
21828;BME280;11076;47.942;11.804;2022-07-22T22:49:19;94523.59;;;21.23;79.11
21828;BME280;11076;47.942;11.804;2022-07-22T22:54:21;94514.22;;;21.45;76.77
21828;BME280;11076;47.942;11.804;2022-07-22T22:59:24;94525.19;;;21.69;74.29
21828;BME280;11076;47.942;11.804;2022-07-22T23:04:26;94526.56;;;21.67;74.66
21828;BME280;11076;47.942;11.804;2022-07-22T23:09:29;94524.69;;;21.62;73.96
21828;BME280;11076;47.942;11.804;2022-07-22T23:14:31;94512.50;;;21.54;74.12
21828;BME280;11076;47.942;11.804;2022-07-22T23:19:34;94513.34;;;21.55;73.06
21828;BME280;11076;47.942;11.804;2022-07-22T23:24:36;94508.09;;;21.63;71.40
21828;BME280;11076;47.942;11.804;2022-07-22T23:29:41;94491.03;;;21.82;67.61
21828;BME280;11076;47.942;11.804;2022-07-22T23:34:44;94487.88;;;21.75;66.58
21828;BME280;11076;47.942;11.804;2022-07-22T23:39:46;94464.75;;;21.96;63.20
21828;BME280;11076;47.942;11.804;2022-07-22T23:44:48;94456.72;;;21.86;63.86
21828;BME280;11076;47.942;11.804;2022-07-22T23:49:51;94449.66;;;21.85;64.19
21828;BME280;11076;47.942;11.804;2022-07-22T23:54:53;94441.22;;;21.87;64.57
21828;BME280;11076;47.942;11.804;2022-07-22T23:59:55;94443.47;;;21.79;65.19
